createdAt,value
2023-05-24T00:02:26.995Z,2.13
2023-05-24T00:04:55.400Z,2.53
2023-05-24T00:07:23.228Z,2.40
2023-05-24T00:09:51.148Z,1.87
2023-05-24T00:12:18.987Z,2.30
2023-05-24T00:14:47.512Z,1.80
2023-05-24T00:17:15.336Z,2.17
2023-05-24T00:19:44.529Z,2.07
2023-05-24T00:22:14.119Z,1.70
2023-05-24T00:24:42.026Z,1.67
2023-05-24T00:27:11.816Z,2.40
2023-05-24T00:29:39.701Z,2.03
2023-05-24T00:32:08.000Z,2.30
2023-05-24T00:34:35.899Z,2.50
2023-05-24T00:37:05.327Z,1.80
2023-05-24T00:39:33.221Z,2.07
2023-05-24T00:42:01.361Z,1.90
2023-05-24T00:44:29.209Z,2.00
2023-05-24T00:46:57.276Z,2.00
2023-05-24T00:49:25.217Z,1.70
2023-05-24T00:51:54.476Z,2.23
2023-05-24T00:54:26.211Z,2.50
2023-05-24T00:56:55.434Z,1.83
2023-05-24T00:59:24.052Z,2.17
2023-05-24T01:01:52.361Z,2.50
2023-05-24T01:04:22.979Z,2.20
2023-05-24T01:07:07.753Z,2.00
2023-05-24T01:09:51.613Z,1.93
2023-05-24T01:12:27.929Z,1.70
2023-05-24T01:15:06.242Z,2.67
2023-05-24T01:17:42.742Z,2.10
2023-05-24T01:20:14.959Z,2.20
2023-05-24T01:23:06.335Z,2.70
2023-05-24T01:26:01.806Z,2.13
2023-05-24T01:28:32.696Z,3.03
2023-05-24T01:31:01.730Z,2.67
2023-05-24T01:33:30.259Z,2.73
2023-05-24T01:35:58.117Z,2.77
2023-05-24T01:38:26.025Z,2.90
2023-05-24T01:41:02.250Z,2.37
2023-05-24T01:43:38.923Z,2.60
2023-05-24T01:46:20.149Z,2.80
2023-05-24T01:48:58.591Z,2.83
2023-05-24T01:51:40.316Z,2.93
2023-05-24T01:54:08.784Z,2.47
2023-05-24T01:56:37.682Z,2.07
2023-05-24T01:59:08.140Z,2.90
2023-05-24T02:01:36.471Z,2.50
2023-05-24T02:04:04.981Z,3.10
2023-05-24T02:06:32.786Z,2.53
2023-05-24T02:09:00.694Z,3.10
2023-05-24T02:11:28.642Z,2.77
2023-05-24T02:13:56.478Z,2.90
2023-05-24T02:16:26.602Z,2.80
2023-05-24T02:18:54.589Z,3.70
2023-05-24T02:21:23.589Z,3.73
2023-05-24T02:23:51.671Z,3.43
2023-05-24T02:26:19.697Z,2.90
2023-05-24T02:28:48.796Z,3.13
2023-05-24T02:31:17.087Z,2.77
2023-05-24T02:33:46.607Z,3.30
2023-05-24T02:36:14.420Z,2.53
2023-05-24T02:38:42.261Z,3.43
2023-05-24T02:41:11.854Z,3.60
2023-05-24T02:43:39.837Z,3.30
2023-05-24T02:46:07.790Z,3.17
2023-05-24T02:48:36.647Z,2.53
2023-05-24T02:51:06.009Z,3.50
2023-05-24T02:53:34.217Z,3.03
2023-05-24T02:56:02.093Z,2.87
2023-05-24T02:58:30.491Z,2.90
2023-05-24T03:00:58.366Z,3.20
2023-05-24T03:03:26.305Z,2.83
2023-05-24T03:05:54.220Z,3.80
2023-05-24T03:08:23.460Z,2.87
2023-05-24T03:10:51.558Z,3.53
2023-05-24T03:13:19.725Z,3.13
2023-05-24T03:15:47.995Z,3.00
2023-05-24T03:18:16.378Z,3.03
2023-05-24T03:20:44.696Z,2.93
2023-05-24T03:23:13.245Z,3.00
2023-05-24T03:25:42.524Z,2.80
2023-05-24T03:28:10.633Z,3.13
2023-05-24T03:30:38.497Z,3.60
2023-05-24T03:33:06.381Z,3.47
2023-05-24T03:35:34.294Z,3.03
2023-05-24T03:38:02.161Z,3.77
2023-05-24T03:40:32.574Z,3.27
2023-05-24T03:43:03.603Z,3.63
2023-05-24T03:45:39.163Z,3.53
2023-05-24T03:48:07.981Z,3.23
2023-05-24T03:50:35.844Z,3.10
2023-05-24T03:53:03.640Z,3.92
2023-05-24T03:55:31.499Z,3.87
2023-05-24T03:58:00.743Z,3.20
2023-05-24T04:00:28.664Z,3.17
2023-05-24T04:02:56.956Z,3.57
2023-05-24T04:05:26.943Z,3.20
2023-05-24T04:07:54.865Z,2.97
2023-05-24T04:10:22.900Z,3.43
2023-05-24T04:12:51.157Z,3.00
2023-05-24T04:15:21.286Z,3.30
2023-05-24T04:17:54.728Z,3.40
2023-05-24T04:20:25.207Z,3.20
2023-05-24T04:22:53.375Z,3.50
2023-05-24T04:25:21.389Z,3.30
2023-05-24T04:27:50.321Z,2.90
2023-05-24T04:30:21.272Z,3.77
2023-05-24T04:32:49.742Z,3.70
2023-05-24T04:35:17.833Z,3.27
2023-05-24T04:37:46.623Z,3.77
2023-05-24T04:40:16.436Z,4.00
2023-05-24T04:42:44.578Z,3.30
2023-05-24T04:45:12.905Z,3.63
2023-05-24T04:47:42.558Z,3.80
2023-05-24T04:50:11.132Z,4.37
2023-05-24T04:52:39.239Z,3.70
2023-05-24T04:55:08.107Z,3.33
2023-05-24T04:57:36.015Z,3.47
2023-05-24T05:00:05.574Z,4.53
2023-05-24T05:02:34.464Z,4.13
2023-05-24T05:05:03.712Z,3.97
2023-05-24T05:07:31.731Z,4.37
2023-05-24T05:09:59.600Z,4.53
2023-05-24T05:12:27.425Z,4.33
2023-05-24T05:14:55.340Z,4.60
2023-05-24T05:17:23.205Z,4.53
2023-05-24T05:19:51.672Z,3.93
2023-05-24T05:22:20.909Z,4.60
2023-05-24T05:24:48.878Z,3.93
2023-05-24T05:27:16.741Z,5.23
2023-05-24T05:29:44.744Z,4.53
2023-05-24T05:32:12.903Z,3.87
2023-05-24T05:34:40.869Z,4.73
2023-05-24T05:37:08.726Z,4.13
2023-05-24T05:39:38.071Z,3.87
2023-05-24T05:42:06.711Z,4.63
2023-05-24T05:44:34.595Z,4.57
2023-05-24T05:47:03.948Z,4.27
2023-05-24T05:49:32.767Z,3.93
2023-05-24T05:52:00.594Z,4.20
2023-05-24T05:54:28.528Z,4.37
2023-05-24T05:56:59.522Z,3.70
2023-05-24T05:59:29.159Z,3.10
2023-05-24T06:01:57.023Z,3.72
2023-05-24T06:04:24.931Z,4.00
2023-05-24T06:06:52.807Z,3.90
2023-05-24T06:09:20.945Z,4.47
2023-05-24T06:11:48.827Z,3.88
2023-05-24T06:14:21.359Z,3.60
2023-05-24T06:16:49.753Z,4.20
2023-05-24T06:19:18.243Z,3.88
2023-05-24T06:21:47.961Z,4.43
2023-05-24T06:24:20.290Z,3.30
2023-05-24T06:26:48.698Z,3.53
2023-05-24T06:29:20.181Z,3.80
2023-05-24T06:31:49.046Z,3.10
2023-05-24T06:34:18.860Z,4.13
2023-05-24T06:36:48.815Z,3.63
2023-05-24T06:39:17.315Z,3.75
2023-05-24T06:41:46.822Z,4.65
2023-05-24T06:44:14.752Z,3.42
2023-05-24T06:46:44.203Z,3.55
2023-05-24T06:49:12.990Z,3.70
2023-05-24T06:51:40.948Z,3.90
2023-05-24T06:54:09.144Z,3.75
2023-05-24T06:56:37.047Z,3.25
2023-05-24T06:59:04.932Z,3.40
2023-05-24T07:01:33.116Z,2.70
2023-05-24T07:04:02.420Z,3.22
2023-05-24T07:06:30.338Z,3.63
2023-05-24T07:08:58.525Z,3.33
2023-05-24T07:11:27.542Z,3.67
2023-05-24T07:13:55.473Z,4.15
2023-05-24T07:16:23.482Z,3.28
2023-05-24T07:18:51.653Z,3.95
2023-05-24T07:21:21.397Z,2.85
2023-05-24T07:23:49.749Z,3.47
2023-05-24T07:26:18.133Z,3.15
2023-05-24T07:28:46.832Z,3.53
2023-05-24T07:31:14.768Z,3.35
2023-05-24T07:33:42.610Z,3.70
2023-05-24T07:36:10.699Z,3.42
2023-05-24T07:38:40.107Z,3.15
2023-05-24T07:41:09.106Z,3.30
2023-05-24T07:43:37.714Z,3.88
2023-05-24T07:46:06.111Z,3.60
2023-05-24T07:48:34.046Z,3.28
2023-05-24T07:51:01.952Z,3.63
2023-05-24T07:53:29.906Z,2.97
2023-05-24T07:55:59.077Z,3.28
2023-05-24T07:58:27.590Z,3.40
2023-05-24T08:00:55.820Z,3.20
2023-05-24T08:03:25.812Z,3.65
2023-05-24T08:05:53.894Z,3.13
2023-05-24T08:08:21.761Z,4.40
2023-05-24T08:10:50.072Z,3.88
2023-05-24T08:13:19.658Z,3.60
2023-05-24T08:15:47.855Z,3.67
2023-05-24T08:18:16.537Z,3.67
2023-05-24T08:20:44.649Z,3.30
2023-05-24T08:23:13.140Z,3.13
2023-05-24T08:25:41.245Z,2.83
2023-05-24T08:28:11.141Z,3.75
2023-05-24T08:30:40.786Z,3.05
2023-05-24T08:33:08.734Z,2.65
2023-05-24T08:35:36.936Z,3.20
2023-05-24T08:38:04.748Z,3.33
2023-05-24T08:40:32.608Z,3.10
2023-05-24T08:43:01.942Z,3.20
2023-05-24T08:45:31.964Z,3.25
2023-05-24T08:48:01.593Z,3.55
2023-05-24T08:50:30.686Z,2.75
2023-05-24T08:53:00.292Z,3.83
2023-05-24T08:55:29.960Z,3.03
2023-05-24T08:58:00.749Z,3.60
2023-05-24T09:00:28.980Z,3.00
2023-05-24T09:02:58.269Z,3.13
2023-05-24T09:05:28.192Z,3.63
2023-05-24T09:07:57.716Z,3.45
2023-05-24T09:10:26.905Z,3.47
2023-05-24T09:12:58.548Z,3.42
2023-05-24T09:15:26.638Z,2.88
2023-05-24T09:17:54.931Z,3.03
2023-05-24T09:20:23.299Z,3.30
2023-05-24T09:22:54.280Z,3.60
2023-05-24T09:25:22.636Z,3.30
2023-05-24T09:27:51.891Z,3.08
2023-05-24T09:30:20.968Z,3.58
2023-05-24T09:32:59.439Z,3.25
2023-05-24T09:35:28.109Z,2.90
2023-05-24T09:37:59.846Z,2.60
2023-05-24T09:40:29.432Z,2.63
2023-05-24T09:43:05.067Z,3.03
2023-05-24T09:45:33.343Z,3.72
2023-05-24T09:48:01.320Z,2.55
2023-05-24T09:50:29.369Z,3.30
2023-05-24T09:52:58.588Z,3.35
2023-05-24T09:55:28.773Z,3.28
2023-05-24T09:58:05.098Z,2.85
2023-05-24T10:00:36.805Z,3.00
2023-05-24T10:03:07.092Z,3.30
2023-05-24T10:05:36.502Z,3.13
2023-05-24T10:08:06.058Z,3.15
2023-05-24T10:10:34.868Z,3.15
2023-05-24T10:13:03.923Z,2.92
2023-05-24T10:15:32.021Z,3.35
2023-05-24T10:18:02.004Z,3.20
2023-05-24T10:20:30.389Z,3.47
2023-05-24T10:23:02.088Z,3.35
2023-05-24T10:25:35.826Z,2.75
2023-05-24T10:28:07.221Z,2.80
2023-05-24T10:30:43.445Z,3.60
2023-05-24T10:33:15.253Z,3.55
2023-05-24T10:35:44.830Z,3.50
2023-05-24T10:38:12.862Z,3.28
2023-05-24T10:40:44.225Z,3.28
2023-05-24T10:43:12.498Z,2.85
2023-05-24T10:45:41.372Z,3.30
2023-05-24T10:48:38.137Z,2.70
2023-05-24T10:51:34.846Z,3.15
2023-05-24T10:54:13.976Z,2.70
2023-05-24T10:56:45.806Z,3.17
2023-05-24T10:59:24.522Z,3.17
2023-05-24T11:02:00.794Z,3.58
2023-05-24T11:04:32.837Z,3.10
2023-05-24T11:07:03.575Z,3.47
2023-05-24T11:09:31.899Z,2.85
2023-05-24T11:12:07.404Z,2.92
2023-05-24T11:14:38.374Z,3.25
2023-05-24T11:17:08.605Z,3.13
2023-05-24T11:19:38.590Z,2.78
2023-05-24T11:22:09.110Z,2.95
2023-05-24T11:24:38.148Z,3.13
2023-05-24T11:27:07.908Z,2.97
2023-05-24T11:29:42.493Z,3.03
2023-05-24T11:32:10.726Z,3.47
2023-05-24T11:34:39.931Z,2.97
2023-05-24T11:37:08.140Z,2.90
2023-05-24T11:39:38.479Z,2.92
2023-05-24T11:42:09.126Z,3.08
2023-05-24T11:44:39.154Z,2.85
2023-05-24T11:47:08.951Z,2.83
2023-05-24T11:49:37.285Z,3.20
2023-05-24T11:52:07.332Z,2.75
2023-05-24T11:54:37.281Z,2.72
2023-05-24T11:57:07.886Z,2.72
2023-05-24T11:59:37.910Z,2.95
2023-05-24T12:02:07.959Z,2.75
2023-05-24T12:04:36.359Z,2.67
2023-05-24T12:07:05.635Z,2.47
2023-05-24T12:09:33.603Z,2.88
2023-05-24T12:12:01.925Z,3.22
2023-05-24T12:14:32.246Z,2.67
2023-05-24T12:17:00.838Z,2.92
2023-05-24T12:19:34.590Z,2.90
2023-05-24T12:22:05.770Z,2.53
2023-05-24T12:24:34.068Z,2.80
2023-05-24T12:27:06.637Z,3.13
2023-05-24T12:29:37.595Z,2.53
2023-05-24T12:32:06.438Z,2.50
2023-05-24T12:34:34.326Z,3.08
2023-05-24T12:37:03.533Z,2.63
2023-05-24T12:39:34.201Z,2.92
2023-05-24T12:42:03.354Z,2.72
2023-05-24T12:44:32.327Z,4.00
2023-05-24T12:47:03.531Z,2.78
2023-05-24T12:49:32.916Z,2.88
2023-05-24T12:52:01.849Z,2.67
2023-05-24T12:54:30.365Z,3.05
2023-05-24T12:56:59.894Z,3.10
2023-05-24T12:59:29.663Z,3.30
2023-05-24T13:01:57.677Z,3.03
2023-05-24T13:04:27.578Z,2.92
2023-05-24T13:06:56.034Z,3.08
2023-05-24T13:09:25.588Z,2.65
2023-05-24T13:11:54.189Z,2.75
2023-05-24T13:14:22.676Z,2.83
2023-05-24T13:16:50.845Z,2.67
2023-05-24T13:19:18.968Z,2.90
2023-05-24T13:21:48.999Z,3.17
2023-05-24T13:24:17.547Z,3.25
2023-05-24T13:26:46.034Z,2.88
2023-05-24T13:31:45.461Z,2.60
2023-05-24T13:34:13.726Z,3.13
2023-05-24T13:36:41.814Z,2.80
2023-05-24T13:39:15.590Z,2.80
2023-05-24T13:41:44.910Z,3.60
2023-05-24T13:44:13.697Z,3.03
2023-05-24T13:46:42.207Z,3.00
2023-05-24T13:49:10.832Z,3.10
2023-05-24T13:51:40.075Z,3.75
2023-05-24T13:54:08.357Z,2.58
2023-05-24T13:56:38.638Z,2.80
2023-05-24T13:59:08.420Z,2.45
2023-05-24T14:01:37.757Z,2.55
2023-05-24T14:04:06.246Z,2.60
2023-05-24T14:06:37.516Z,2.47
2023-05-24T14:09:06.956Z,2.63
2023-05-24T14:11:35.012Z,2.90
2023-05-24T14:16:35.104Z,2.85
2023-05-24T14:19:03.091Z,2.95
2023-05-24T14:21:31.013Z,2.60
2023-05-24T14:23:58.962Z,2.97
2023-05-24T14:26:27.662Z,2.60
2023-05-24T14:28:56.978Z,2.70
2023-05-24T14:31:26.619Z,2.60
2023-05-24T14:33:54.752Z,2.08
2023-05-24T14:36:22.764Z,2.58
2023-05-24T14:38:50.889Z,2.50
2023-05-24T14:41:18.867Z,2.58
2023-05-24T14:43:47.464Z,3.15
2023-05-24T14:46:16.090Z,2.72
2023-05-24T14:48:46.228Z,2.72
2023-05-24T14:51:14.248Z,2.83
2023-05-24T14:53:42.067Z,2.70
2023-05-24T14:56:10.187Z,2.85
2023-05-24T14:58:38.333Z,2.45
2023-05-24T15:01:06.805Z,2.75
2023-05-24T15:03:35.060Z,2.65
2023-05-24T15:06:05.385Z,2.58
2023-05-24T15:08:35.095Z,3.13
2023-05-24T15:11:03.026Z,2.70
2023-05-24T15:13:31.156Z,2.63
2023-05-24T15:16:00.380Z,3.28
2023-05-24T15:18:29.004Z,2.55
2023-05-24T15:20:57.070Z,2.33
2023-05-24T15:23:26.793Z,2.35
2023-05-24T15:25:54.702Z,2.75
2023-05-24T15:28:23.974Z,2.72
2023-05-24T15:30:54.358Z,2.80
2023-05-24T15:33:22.457Z,2.35
2023-05-24T15:35:50.960Z,2.70
2023-05-24T15:38:18.922Z,2.75
2023-05-24T15:40:48.835Z,2.40
2023-05-24T15:43:18.729Z,2.35
2023-05-24T15:45:47.836Z,2.75
2023-05-24T15:48:15.995Z,2.30
2023-05-24T15:51:09.368Z,2.45
2023-05-24T15:53:32.504Z,2.72
2023-05-24T15:56:01.745Z,2.53
2023-05-24T15:58:29.628Z,2.58
2023-05-24T16:00:57.476Z,3.50
2023-05-24T16:03:25.430Z,2.53
2023-05-24T16:05:53.412Z,2.40
2023-05-24T16:08:27.378Z,2.60
2023-05-24T16:10:55.445Z,2.20
2023-05-24T16:13:24.932Z,2.25
2023-05-24T16:15:52.904Z,2.92
2023-05-24T16:18:22.467Z,3.03
2023-05-24T16:20:51.796Z,2.95
2023-05-24T16:23:22.799Z,2.80
2023-05-24T16:25:51.315Z,3.10
2023-05-24T16:28:23.761Z,2.42
2023-05-24T16:30:55.811Z,2.63
2023-05-24T16:33:24.246Z,3.00
2023-05-24T16:36:00.511Z,3.22
2023-05-24T16:38:30.051Z,2.58
2023-05-24T16:40:58.035Z,2.72
2023-05-24T16:43:26.021Z,3.03
2023-05-24T16:45:56.099Z,2.72
2023-05-24T16:48:28.066Z,2.70
2023-05-24T16:50:56.666Z,2.80
2023-05-24T16:53:26.090Z,2.78
2023-05-24T16:55:55.620Z,2.72
2023-05-24T16:58:24.423Z,2.83
2023-05-24T17:00:54.227Z,2.80
2023-05-24T17:03:27.748Z,3.00
2023-05-24T17:05:58.912Z,3.45
2023-05-24T17:08:28.576Z,3.13
2023-05-24T17:10:57.089Z,2.97
2023-05-24T17:13:27.315Z,2.95
2023-05-24T17:15:55.853Z,2.75
2023-05-24T17:18:29.085Z,2.95
2023-05-24T17:20:57.886Z,2.80
2023-05-24T17:23:26.575Z,2.72
2023-05-24T17:25:55.496Z,2.33
2023-05-24T17:28:27.335Z,2.70
2023-05-24T17:30:55.777Z,2.70
2023-05-24T17:33:26.030Z,2.55
2023-05-24T17:35:56.312Z,2.55
2023-05-24T17:38:24.804Z,2.60
2023-05-24T17:40:56.869Z,2.28
2023-05-24T17:43:28.683Z,3.13
2023-05-24T17:46:03.036Z,2.45
2023-05-24T17:48:33.061Z,3.03
2023-05-24T17:51:01.827Z,3.28
2023-05-24T17:53:32.097Z,2.63
2023-05-24T17:56:00.666Z,2.47
2023-05-24T17:58:28.553Z,2.72
2023-05-24T18:00:56.451Z,2.70
2023-05-24T18:03:25.005Z,2.33
2023-05-24T18:05:54.228Z,3.17
2023-05-24T18:08:22.954Z,2.55
2023-05-24T18:10:51.490Z,2.45
2023-05-24T18:13:19.548Z,2.85
2023-05-24T18:15:48.877Z,2.65
2023-05-24T18:18:17.464Z,2.72
2023-05-24T18:20:45.812Z,3.55
2023-05-24T18:23:15.381Z,2.70
2023-05-24T18:25:45.324Z,2.53
2023-05-24T18:28:13.559Z,2.90
2023-05-24T18:30:42.798Z,2.67
2023-05-24T18:33:10.821Z,2.40
2023-05-24T18:35:38.893Z,3.20
2023-05-24T18:38:06.711Z,2.72
2023-05-24T18:40:35.907Z,2.13
2023-05-24T18:43:03.817Z,3.15
2023-05-24T18:45:31.759Z,2.88
2023-05-24T18:48:01.020Z,3.28
2023-05-24T18:50:28.921Z,2.80
2023-05-24T18:52:57.268Z,2.88
2023-05-24T18:55:25.112Z,3.33
2023-05-24T18:57:54.370Z,2.60
2023-05-24T19:00:22.834Z,2.83
2023-05-24T19:02:51.768Z,3.33
2023-05-24T19:05:20.881Z,3.00
2023-05-24T19:07:48.940Z,3.17
2023-05-24T19:10:17.646Z,2.70
2023-05-24T19:12:45.677Z,2.75
2023-05-24T19:15:15.332Z,2.75
2023-05-24T19:17:43.219Z,2.67
2023-05-24T19:20:12.653Z,3.00
2023-05-24T19:22:40.709Z,3.55
2023-05-24T19:25:09.529Z,3.30
2023-05-24T19:27:39.791Z,3.00
2023-05-24T19:30:17.346Z,2.95
2023-05-24T19:32:45.322Z,3.15
2023-05-24T19:35:13.364Z,3.58
2023-05-24T19:37:41.240Z,3.10
2023-05-24T19:40:09.982Z,2.75
2023-05-24T19:42:37.898Z,3.22
2023-05-24T19:45:06.809Z,2.83
2023-05-24T19:47:36.036Z,2.70
2023-05-24T19:50:04.167Z,3.03
2023-05-24T19:52:32.139Z,3.10
2023-05-24T19:55:00.144Z,2.85
2023-05-24T19:57:28.049Z,3.33
2023-05-24T19:59:56.242Z,2.95
2023-05-24T20:02:24.370Z,2.63
2023-05-24T20:04:54.790Z,3.08
2023-05-24T20:07:22.710Z,3.63
2023-05-24T20:09:50.839Z,3.15
2023-05-24T20:12:18.618Z,3.15
2023-05-24T20:14:46.673Z,3.33
2023-05-24T20:17:14.661Z,2.85
2023-05-24T20:19:42.534Z,2.65
2023-05-24T20:22:12.519Z,3.42
2023-05-24T20:24:40.328Z,3.17
2023-05-24T20:27:08.201Z,3.05
2023-05-24T20:29:36.164Z,3.30
2023-05-24T20:32:04.144Z,3.83
2023-05-24T20:34:32.004Z,4.00
2023-05-24T20:36:59.970Z,3.30
2023-05-24T20:39:29.169Z,3.30
2023-05-24T20:41:58.471Z,2.88
2023-05-24T20:44:26.660Z,2.92
2023-05-24T20:46:54.774Z,3.33
2023-05-24T20:49:22.614Z,3.22
2023-05-24T20:51:50.946Z,3.40
2023-05-24T20:54:18.986Z,3.60
2023-05-24T20:56:48.960Z,3.28
2023-05-24T20:59:17.440Z,2.90
2023-05-24T21:01:45.701Z,3.53
2023-05-24T21:04:14.158Z,3.38
2023-05-24T21:06:42.112Z,3.40
2023-05-24T21:09:10.334Z,2.90
2023-05-24T21:11:38.436Z,3.20
2023-05-24T21:14:07.623Z,3.65
2023-05-24T21:16:36.479Z,3.53
2023-05-24T21:19:04.331Z,3.00
2023-05-24T21:21:32.161Z,3.35
2023-05-24T21:24:00.039Z,3.40
2023-05-24T21:26:27.960Z,3.55
2023-05-24T21:28:55.813Z,3.38
2023-05-24T21:31:25.964Z,3.75
2023-05-24T21:33:55.764Z,3.10
2023-05-24T21:36:23.658Z,3.30
2023-05-24T21:38:51.564Z,2.60
2023-05-24T21:41:19.479Z,3.03
2023-05-24T21:43:47.766Z,2.92
2023-05-24T21:46:15.674Z,3.53
2023-05-24T21:48:45.590Z,3.38
2023-05-24T21:51:15.529Z,3.15
2023-05-24T21:53:43.516Z,3.30
2023-05-24T21:56:11.654Z,3.40
2023-05-24T21:58:39.498Z,3.53
2023-05-24T22:01:08.571Z,3.75
2023-05-24T22:03:38.205Z,2.45
2023-05-24T22:06:07.788Z,3.40
2023-05-24T22:08:35.759Z,3.38
2023-05-24T22:11:03.650Z,3.05
2023-05-24T22:13:31.540Z,3.13
2023-05-24T22:15:59.526Z,3.92
2023-05-24T22:18:28.200Z,3.63
2023-05-24T22:20:58.967Z,3.15
2023-05-24T22:23:28.207Z,3.55
2023-05-24T22:25:56.099Z,3.47
2023-05-24T22:28:24.794Z,3.88
2023-05-24T22:30:53.211Z,2.95
2023-05-24T22:33:21.175Z,3.17
2023-05-24T22:35:49.674Z,3.53
2023-05-24T22:38:17.915Z,3.97
2023-05-24T22:40:47.591Z,3.50
2023-05-24T22:43:15.668Z,3.35
2023-05-24T22:45:43.699Z,3.67
2023-05-24T22:48:11.742Z,3.35
2023-05-24T22:50:39.619Z,3.78
2023-05-24T22:53:09.068Z,3.65
2023-05-24T22:55:36.928Z,3.33
2023-05-24T22:58:06.209Z,3.53
2023-05-24T23:00:34.046Z,3.42
2023-05-24T23:03:01.963Z,3.17
2023-05-24T23:05:30.453Z,3.45
2023-05-24T23:07:58.617Z,2.88
2023-05-24T23:10:26.506Z,3.53
2023-05-24T23:12:55.212Z,3.42
2023-05-24T23:15:28.982Z,3.50
2023-05-24T23:17:57.170Z,3.92
2023-05-24T23:20:25.843Z,2.92
2023-05-24T23:22:53.841Z,3.30
2023-05-24T23:25:21.697Z,3.67
2023-05-24T23:27:49.741Z,3.35
2023-05-24T23:30:17.894Z,3.47
2023-05-24T23:32:47.578Z,3.42
2023-05-24T23:35:15.810Z,3.20
2023-05-24T23:37:43.653Z,3.40
2023-05-24T23:40:12.820Z,4.13
2023-05-24T23:42:40.717Z,3.63
2023-05-24T23:45:09.296Z,3.83
2023-05-24T23:47:37.155Z,3.80
2023-05-24T23:50:07.870Z,4.47
2023-05-24T23:52:36.003Z,4.43
2023-05-24T23:55:04.315Z,3.58
2023-05-24T23:57:32.114Z,3.72
2023-05-24T23:59:59.945Z,3.72
